createdAt,value
2019-05-26T00:00:34.431Z,100.00
2019-05-26T00:03:13.513Z,100.00
2019-05-26T00:05:58.792Z,100.00
2019-05-26T00:08:46.388Z,100.00
2019-05-26T00:11:25.597Z,100.00
2019-05-26T00:14:02.814Z,100.00
2019-05-26T00:16:41.430Z,100.00
2019-05-26T00:19:25.061Z,100.00
2019-05-26T00:22:10.248Z,100.00
2019-05-26T00:24:49.651Z,100.00
2019-05-26T00:27:35.860Z,100.00
2019-05-26T00:30:04.961Z,100.00
2019-05-26T00:32:43.271Z,100.00
2019-05-26T00:35:17.851Z,100.00
2019-05-26T00:38:00.670Z,100.00
2019-05-26T00:40:46.891Z,100.00
2019-05-26T00:43:46.628Z,100.00
2019-05-26T00:46:22.291Z,100.00
2019-05-26T00:48:55.381Z,100.00
2019-05-26T00:51:35.005Z,100.00
2019-05-26T00:54:09.950Z,100.00
2019-05-26T00:56:50.054Z,100.00
2019-05-26T00:59:29.433Z,100.00
2019-05-26T01:02:12.644Z,100.00
2019-05-26T01:05:24.913Z,100.00
2019-05-26T01:08:07.838Z,100.00
2019-05-26T01:10:43.584Z,100.00
2019-05-26T01:13:45.881Z,100.00
2019-05-26T01:16:30.701Z,100.00
2019-05-26T01:19:12.318Z,100.00
2019-05-26T01:21:59.111Z,100.00
2019-05-26T01:24:50.468Z,100.00
2019-05-26T01:27:26.976Z,100.00
2019-05-26T01:30:14.839Z,100.00
2019-05-26T01:33:17.365Z,100.00
2019-05-26T01:35:59.074Z,100.00
2019-05-26T01:38:37.498Z,100.00
2019-05-26T01:41:16.708Z,100.00
2019-05-26T01:44:12.504Z,100.00
2019-05-26T01:47:08.142Z,100.00
2019-05-26T01:49:45.399Z,100.00
2019-05-26T01:52:21.299Z,100.00
2019-05-26T01:55:00.965Z,100.00
2019-05-26T01:57:51.429Z,100.00
2019-05-26T02:00:25.796Z,100.00
2019-05-26T02:02:59.595Z,100.00
2019-05-26T02:05:52.397Z,100.00
2019-05-26T02:09:16.817Z,100.00
2019-05-26T02:12:25.149Z,100.00
2019-05-26T02:15:03.530Z,100.00
2019-05-26T02:17:58.144Z,100.00
2019-05-26T02:20:34.804Z,100.00
2019-05-26T02:23:15.762Z,100.00
2019-05-26T02:25:49.513Z,100.00
2019-05-26T02:28:23.613Z,100.00
2019-05-26T02:31:00.055Z,100.00
2019-05-26T02:33:38.632Z,100.00
2019-05-26T02:36:20.151Z,100.00
2019-05-26T02:39:04.896Z,100.00
2019-05-26T02:41:43.162Z,100.00
2019-05-26T02:44:31.933Z,100.00
2019-05-26T02:47:14.990Z,100.00
2019-05-26T02:49:57.489Z,100.00
2019-05-26T02:52:45.098Z,100.00
2019-05-26T02:55:29.255Z,100.00
2019-05-26T02:58:06.542Z,100.00
2019-05-26T03:00:46.410Z,100.00
2019-05-26T03:03:23.379Z,100.00
2019-05-26T03:06:00.120Z,100.00
2019-05-26T03:08:45.818Z,100.00
2019-05-26T03:11:22.492Z,100.00
2019-05-26T03:16:58.766Z,100.00
2019-05-26T03:19:34.493Z,100.00
2019-05-26T03:22:12.204Z,100.00
2019-05-26T03:25:07.977Z,100.00
2019-05-26T03:27:41.539Z,100.00
2019-05-26T03:30:18.035Z,100.00
2019-05-26T03:32:54.832Z,100.00
2019-05-26T03:35:27.939Z,100.00
2019-05-26T03:38:09.363Z,100.00
2019-05-26T03:40:51.484Z,100.00
2019-05-26T03:43:53.696Z,100.00
2019-05-26T03:46:28.188Z,100.00
2019-05-26T03:49:02.532Z,100.00
2019-05-26T03:51:39.847Z,100.00
2019-05-26T03:54:21.755Z,100.00
2019-05-26T03:56:56.570Z,100.00
2019-05-26T03:59:48.922Z,100.00
2019-05-26T04:02:37.072Z,100.00
2019-05-26T04:05:16.730Z,100.00
2019-05-26T04:07:51.472Z,100.00
2019-05-26T04:10:26.169Z,100.00
2019-05-26T04:13:05.849Z,100.00
2019-05-26T04:15:52.358Z,100.00
2019-05-26T04:18:29.831Z,100.00
2019-05-26T04:21:02.486Z,100.00
2019-05-26T04:23:37.869Z,100.00
2019-05-26T04:26:27.348Z,100.00
2019-05-26T04:29:10.202Z,100.00
2019-05-26T04:32:05.469Z,100.00
2019-05-26T04:34:38.375Z,100.00
2019-05-26T04:37:23.754Z,100.00
2019-05-26T04:40:26.725Z,100.00
2019-05-26T04:43:00.060Z,100.00
2019-05-26T04:45:30.547Z,100.00
2019-05-26T04:48:07.408Z,100.00
2019-05-26T04:50:45.869Z,100.00
2019-05-26T04:53:20.726Z,100.00
2019-05-26T04:55:58.041Z,100.00
2019-05-26T04:58:53.407Z,100.00
2019-05-26T05:01:33.919Z,100.00
2019-05-26T05:04:39.354Z,100.00
2019-05-26T05:07:30.283Z,100.00
2019-05-26T05:10:08.386Z,100.00
2019-05-26T05:12:48.942Z,100.00
2019-05-26T05:15:30.486Z,100.00
2019-05-26T05:18:05.882Z,100.00
2019-05-26T05:20:47.935Z,100.00
2019-05-26T05:23:24.948Z,100.00
2019-05-26T05:26:05.482Z,100.00
2019-05-26T05:29:01.228Z,100.00
2019-05-26T05:31:38.919Z,100.00
2019-05-26T05:34:19.433Z,100.00
2019-05-26T05:37:08.592Z,100.00
2019-05-26T05:39:47.037Z,100.00
2019-05-26T05:42:36.574Z,100.00
2019-05-26T05:45:29.536Z,100.00
2019-05-26T05:48:13.219Z,100.00
2019-05-26T05:50:50.484Z,100.00
2019-05-26T05:53:32.267Z,100.00
2019-05-26T05:56:15.791Z,100.00
2019-05-26T05:58:54.355Z,100.00
2019-05-26T06:01:26.046Z,100.00
2019-05-26T06:04:20.295Z,100.00
2019-05-26T06:07:17.733Z,100.00
2019-05-26T06:09:46.725Z,100.00
2019-05-26T06:12:20.185Z,100.00
2019-05-26T06:14:52.594Z,100.00
2019-05-26T06:17:31.674Z,100.00
2019-05-26T06:20:04.231Z,100.00
2019-05-26T06:22:35.771Z,100.00
2019-05-26T06:25:13.104Z,100.00
2019-05-26T06:27:55.233Z,100.00
2019-05-26T06:30:41.509Z,100.00
2019-05-26T06:33:16.391Z,100.00
2019-05-26T06:35:51.994Z,100.00
2019-05-26T06:38:25.510Z,100.00
2019-05-26T06:41:02.609Z,100.00
2019-05-26T06:43:44.445Z,100.00
2019-05-26T06:46:26.442Z,100.00
2019-05-26T06:49:03.478Z,100.00
2019-05-26T06:51:38.539Z,100.00
2019-05-26T06:54:17.410Z,100.00
2019-05-26T06:56:59.550Z,100.00
2019-05-26T06:59:37.667Z,100.00
2019-05-26T07:02:15.459Z,100.00
2019-05-26T07:04:52.562Z,100.00
2019-05-26T07:07:28.195Z,100.00
2019-05-26T07:10:07.305Z,100.00
2019-05-26T07:12:57.967Z,100.00
2019-05-26T07:15:33.973Z,100.00
2019-05-26T07:18:09.815Z,100.00
2019-05-26T07:20:53.974Z,100.00
2019-05-26T07:23:31.319Z,100.00
2019-05-26T07:26:11.243Z,100.00
2019-05-26T07:28:53.105Z,100.00
2019-05-26T07:31:28.644Z,100.00
2019-05-26T07:34:14.187Z,100.00
2019-05-26T07:36:53.225Z,100.00
2019-05-26T07:39:28.668Z,100.00
2019-05-26T07:42:09.807Z,100.00
2019-05-26T07:44:43.582Z,100.00
2019-05-26T07:47:17.712Z,100.00
2019-05-26T07:49:50.775Z,100.00
2019-05-26T07:52:26.598Z,98.96
2019-05-26T07:55:02.086Z,100.00
2019-05-26T07:57:45.603Z,100.00
2019-05-26T08:00:25.689Z,95.36
2019-05-26T08:03:01.055Z,97.02
2019-05-26T08:05:42.834Z,96.13
2019-05-26T08:08:18.287Z,98.69
2019-05-26T08:10:57.610Z,98.05
2019-05-26T08:13:31.190Z,93.18
2019-05-26T08:16:08.086Z,93.54
2019-05-26T08:18:55.632Z,93.77
2019-05-26T08:21:34.470Z,93.55
2019-05-26T08:24:13.928Z,91.21
2019-05-26T08:26:48.569Z,91.25
2019-05-26T08:29:22.799Z,93.97
2019-05-26T08:31:58.208Z,90.00
2019-05-26T08:34:41.459Z,89.90
2019-05-26T08:37:13.833Z,87.70
2019-05-26T08:39:56.623Z,82.90
2019-05-26T08:42:43.736Z,84.54
2019-05-26T08:45:13.580Z,83.24
2019-05-26T08:47:52.135Z,86.69
2019-05-26T08:50:35.083Z,82.60
2019-05-26T08:53:09.247Z,82.53
2019-05-26T08:55:46.621Z,86.15
2019-05-26T08:58:40.036Z,85.86
2019-05-26T09:01:12.886Z,89.67
2019-05-26T09:04:00.617Z,96.04
2019-05-26T09:06:39.238Z,87.08
2019-05-26T09:09:24.427Z,85.50
2019-05-26T09:12:14.263Z,84.72
2019-05-26T09:14:51.326Z,85.06
2019-05-26T09:17:33.251Z,84.90
2019-05-26T09:20:11.933Z,85.36
2019-05-26T09:22:44.811Z,85.80
2019-05-26T09:25:31.130Z,86.91
2019-05-26T09:28:17.313Z,86.23
2019-05-26T09:33:43.312Z,77.76
2019-05-26T09:36:21.509Z,73.68
2019-05-26T09:39:10.396Z,75.73
2019-05-26T09:41:48.429Z,66.28
2019-05-26T09:44:33.695Z,70.85
2019-05-26T09:47:19.678Z,73.24
2019-05-26T09:49:57.752Z,73.61
2019-05-26T09:52:37.906Z,72.63
2019-05-26T09:55:17.891Z,69.61
2019-05-26T09:57:56.348Z,66.39
2019-05-26T10:00:35.188Z,66.87
2019-05-26T10:03:20.300Z,67.16
2019-05-26T10:05:59.800Z,62.28
2019-05-26T10:08:40.990Z,61.44
2019-05-26T10:11:18.284Z,63.79
2019-05-26T10:14:18.669Z,64.70
2019-05-26T10:17:01.141Z,65.11
2019-05-26T10:19:44.507Z,68.16
2019-05-26T10:22:19.062Z,67.78
2019-05-26T10:24:53.692Z,66.15
2019-05-26T10:27:29.530Z,64.41
2019-05-26T10:30:10.903Z,58.61
2019-05-26T10:32:48.440Z,59.19
2019-05-26T10:35:29.640Z,55.98
2019-05-26T10:38:05.554Z,56.70
2019-05-26T10:40:54.173Z,58.60
2019-05-26T10:43:47.398Z,58.64
2019-05-26T10:46:27.909Z,62.01
2019-05-26T10:49:06.786Z,56.56
2019-05-26T10:51:41.289Z,56.16
2019-05-26T10:54:18.355Z,55.72
2019-05-26T10:56:57.659Z,55.95
2019-05-26T10:59:34.071Z,59.19
2019-05-26T11:02:07.668Z,59.51
2019-05-26T11:04:41.513Z,68.06
2019-05-26T11:07:16.853Z,72.11
2019-05-26T11:09:50.519Z,72.55
2019-05-26T11:12:24.154Z,72.49
2019-05-26T11:15:01.837Z,73.66
2019-05-26T11:17:37.547Z,71.35
2019-05-26T11:20:12.586Z,68.79
2019-05-26T11:22:47.936Z,70.17
2019-05-26T11:25:41.181Z,70.91
2019-05-26T11:28:13.046Z,73.72
2019-05-26T11:30:47.598Z,72.67
2019-05-26T11:33:31.278Z,71.93
2019-05-26T11:36:23.630Z,73.13
2019-05-26T11:38:51.963Z,71.93
2019-05-26T11:41:26.750Z,74.39
2019-05-26T11:44:17.028Z,73.57
2019-05-26T11:46:43.281Z,75.08
2019-05-26T11:49:21.515Z,76.68
2019-05-26T11:52:04.960Z,73.80
2019-05-26T11:54:46.554Z,79.35
2019-05-26T11:57:26.752Z,77.76
2019-05-26T12:00:09.824Z,79.47
2019-05-26T12:03:09.932Z,79.23
2019-05-26T12:05:44.857Z,78.63
2019-05-26T12:08:20.746Z,79.22
2019-05-26T12:10:52.135Z,81.00
2019-05-26T12:13:30.013Z,79.55
2019-05-26T12:16:09.956Z,76.50
2019-05-26T12:18:49.088Z,72.63
2019-05-26T12:21:21.310Z,74.67
2019-05-26T12:23:59.727Z,70.17
2019-05-26T12:26:39.372Z,66.95
2019-05-26T12:29:18.572Z,66.67
2019-05-26T12:31:56.040Z,60.79
2019-05-26T12:34:28.678Z,61.89
2019-05-26T12:37:10.746Z,61.97
2019-05-26T12:39:54.152Z,61.62
2019-05-26T12:45:23.566Z,64.05
2019-05-26T12:48:02.457Z,63.85
2019-05-26T12:50:50.206Z,66.66
2019-05-26T12:53:25.810Z,69.64
2019-05-26T12:56:05.021Z,70.25
2019-05-26T12:58:46.836Z,71.14
2019-05-26T13:01:23.675Z,67.55
2019-05-26T13:04:15.115Z,67.09
2019-05-26T13:06:53.308Z,68.52
2019-05-26T13:09:29.084Z,69.78
2019-05-26T13:12:13.691Z,69.29
2019-05-26T13:14:46.991Z,70.33
2019-05-26T13:17:31.524Z,72.37
2019-05-26T13:20:15.266Z,73.67
2019-05-26T13:22:53.045Z,74.34
2019-05-26T13:25:28.967Z,76.79
2019-05-26T13:28:03.842Z,75.68
2019-05-26T13:30:47.411Z,75.36
2019-05-26T13:33:20.781Z,75.34
2019-05-26T13:36:01.837Z,78.83
2019-05-26T13:38:35.078Z,82.49
2019-05-26T13:41:22.073Z,85.68
2019-05-26T13:43:59.993Z,86.88
2019-05-26T13:46:39.770Z,87.99
2019-05-26T13:49:20.187Z,86.00
2019-05-26T13:51:55.469Z,80.36
2019-05-26T13:54:31.368Z,84.45
2019-05-26T13:57:16.775Z,84.98
2019-05-26T13:59:56.845Z,84.75
2019-05-26T14:02:29.168Z,84.68
2019-05-26T14:05:03.505Z,84.50
2019-05-26T14:07:39.777Z,85.28
2019-05-26T14:10:20.231Z,83.33
2019-05-26T14:12:55.429Z,81.00
2019-05-26T14:15:38.285Z,85.07
2019-05-26T14:18:26.060Z,85.92
2019-05-26T14:21:05.805Z,85.83
2019-05-26T14:23:45.198Z,84.09
2019-05-26T14:26:23.430Z,85.03
2019-05-26T14:28:58.106Z,84.46
2019-05-26T14:31:36.786Z,86.58
2019-05-26T14:34:21.917Z,85.70
2019-05-26T14:36:53.247Z,84.13
2019-05-26T14:39:27.229Z,82.41
2019-05-26T14:42:12.510Z,82.87
2019-05-26T14:44:47.516Z,85.80
2019-05-26T14:47:25.465Z,86.49
2019-05-26T14:50:07.737Z,85.77
2019-05-26T14:52:52.238Z,86.35
2019-05-26T14:55:35.072Z,83.27
2019-05-26T14:58:15.657Z,80.13
2019-05-26T15:00:43.025Z,78.72
2019-05-26T15:03:19.152Z,78.90
2019-05-26T15:06:06.245Z,79.56
2019-05-26T15:08:43.717Z,81.26
2019-05-26T15:11:22.852Z,83.03
2019-05-26T15:14:10.357Z,84.17
2019-05-26T15:16:43.235Z,87.42
2019-05-26T15:19:15.660Z,86.11
2019-05-26T15:21:55.996Z,87.88
2019-05-26T15:24:39.773Z,89.35
2019-05-26T15:27:14.021Z,88.08
2019-05-26T15:29:58.467Z,86.36
2019-05-26T15:32:43.380Z,88.00
2019-05-26T15:35:20.293Z,89.20
2019-05-26T15:38:09.190Z,89.79
2019-05-26T15:40:45.935Z,89.80
2019-05-26T15:43:36.782Z,90.63
2019-05-26T15:49:20.263Z,89.20
2019-05-26T15:51:55.416Z,92.31
2019-05-26T15:54:33.791Z,91.82
2019-05-26T15:57:15.477Z,93.04
2019-05-26T15:59:54.918Z,91.97
2019-05-26T16:02:40.380Z,92.90
2019-05-26T16:05:18.542Z,93.83
2019-05-26T16:07:53.349Z,93.23
2019-05-26T16:10:25.656Z,95.72
2019-05-26T16:13:01.757Z,94.45
2019-05-26T16:15:36.421Z,91.51
2019-05-26T16:18:18.593Z,92.59
2019-05-26T16:21:02.747Z,94.34
2019-05-26T16:23:33.734Z,98.66
2019-05-26T16:26:12.486Z,100.00
2019-05-26T16:28:50.761Z,100.00
2019-05-26T16:31:24.233Z,100.00
2019-05-26T16:33:57.766Z,100.00
2019-05-26T16:36:41.003Z,100.00
2019-05-26T16:39:14.350Z,100.00
2019-05-26T16:41:53.204Z,100.00
2019-05-26T16:44:26.296Z,100.00
2019-05-26T16:46:57.958Z,100.00
2019-05-26T16:49:33.675Z,100.00
2019-05-26T16:52:17.758Z,100.00
2019-05-26T16:54:56.888Z,100.00
2019-05-26T16:57:34.788Z,100.00
2019-05-26T17:00:14.431Z,100.00
2019-05-26T17:02:48.872Z,100.00
2019-05-26T17:05:23.517Z,100.00
2019-05-26T17:07:59.128Z,100.00
2019-05-26T17:10:33.140Z,100.00
2019-05-26T17:13:06.456Z,100.00
2019-05-26T17:15:43.673Z,100.00
2019-05-26T17:18:19.021Z,100.00
2019-05-26T17:20:51.015Z,100.00
2019-05-26T17:23:27.295Z,100.00
2019-05-26T17:26:02.314Z,100.00
2019-05-26T17:28:37.823Z,100.00
2019-05-26T17:31:13.716Z,100.00
2019-05-26T17:33:49.606Z,100.00
2019-05-26T17:36:25.481Z,100.00
2019-05-26T17:39:02.207Z,100.00
2019-05-26T17:41:40.031Z,100.00
2019-05-26T17:44:13.253Z,100.00
2019-05-26T17:46:53.981Z,100.00
2019-05-26T17:49:34.953Z,100.00
2019-05-26T17:52:11.251Z,100.00
2019-05-26T17:54:48.313Z,100.00
2019-05-26T17:57:26.425Z,100.00
2019-05-26T18:00:01.586Z,100.00
2019-05-26T18:02:37.276Z,100.00
2019-05-26T18:05:20.324Z,100.00
2019-05-26T18:08:01.952Z,100.00
2019-05-26T18:10:38.077Z,100.00
2019-05-26T18:13:13.709Z,100.00
2019-05-26T18:15:46.249Z,100.00
2019-05-26T18:18:21.597Z,100.00
2019-05-26T18:20:58.479Z,100.00
2019-05-26T18:23:33.616Z,100.00
2019-05-26T18:26:07.226Z,100.00
2019-05-26T18:28:40.891Z,100.00
2019-05-26T18:31:13.144Z,100.00
2019-05-26T18:33:47.207Z,100.00
2019-05-26T18:36:22.425Z,99.33
2019-05-26T18:38:55.619Z,99.08
2019-05-26T18:41:29.637Z,98.34
2019-05-26T18:44:09.693Z,96.49
2019-05-26T18:46:43.706Z,94.95
2019-05-26T18:49:23.000Z,93.61
2019-05-26T18:51:57.955Z,92.41
2019-05-26T18:54:30.940Z,92.21
2019-05-26T18:57:08.012Z,92.20
2019-05-26T18:59:42.319Z,91.33
2019-05-26T19:02:15.617Z,91.59
2019-05-26T19:04:48.398Z,92.04
2019-05-26T19:07:21.180Z,90.82
2019-05-26T19:09:57.875Z,90.32
2019-05-26T19:12:34.883Z,90.80
2019-05-26T19:15:06.529Z,90.55
2019-05-26T19:17:42.750Z,88.50
2019-05-26T19:20:18.196Z,88.75
2019-05-26T19:22:53.505Z,87.30
2019-05-26T19:25:33.410Z,88.36
2019-05-26T19:28:08.244Z,89.11
2019-05-26T19:30:45.529Z,89.46
2019-05-26T19:33:21.102Z,90.16
2019-05-26T19:35:57.111Z,89.40
2019-05-26T19:38:36.255Z,89.21
2019-05-26T19:41:19.064Z,89.24
2019-05-26T19:43:58.685Z,91.00
2019-05-26T19:46:33.332Z,90.40
2019-05-26T19:49:07.734Z,89.29
2019-05-26T19:51:41.609Z,89.04
2019-05-26T19:54:15.368Z,89.27
2019-05-26T19:56:48.514Z,89.78
2019-05-26T19:59:25.785Z,89.88
2019-05-26T20:01:58.882Z,90.18
2019-05-26T20:04:33.059Z,89.41
2019-05-26T20:07:08.870Z,89.07
2019-05-26T20:09:49.224Z,88.59
2019-05-26T20:12:27.217Z,87.56
2019-05-26T20:15:04.335Z,86.84
2019-05-26T20:17:44.998Z,87.66
2019-05-26T20:20:22.602Z,86.61
2019-05-26T20:22:57.951Z,85.38
2019-05-26T20:25:34.858Z,85.59
2019-05-26T20:28:14.226Z,85.25
2019-05-26T20:30:56.729Z,83.86
2019-05-26T20:33:28.480Z,82.67
2019-05-26T20:36:07.581Z,82.89
2019-05-26T20:38:41.204Z,83.34
2019-05-26T20:41:17.990Z,82.43
2019-05-26T20:43:52.415Z,82.78
2019-05-26T20:46:29.265Z,82.58
2019-05-26T20:49:06.347Z,82.54
2019-05-26T20:51:48.804Z,82.48
2019-05-26T20:54:27.043Z,82.70
2019-05-26T20:57:03.208Z,83.20
2019-05-26T20:59:36.557Z,84.12
2019-05-26T21:02:12.984Z,84.96
2019-05-26T21:04:45.472Z,86.54
2019-05-26T21:07:19.511Z,86.29
2019-05-26T21:09:51.634Z,87.55
2019-05-26T21:12:26.410Z,87.31
2019-05-26T21:15:02.730Z,88.47
2019-05-26T21:17:38.115Z,88.43
2019-05-26T21:20:16.479Z,90.69
2019-05-26T21:22:50.838Z,89.98
2019-05-26T21:25:23.941Z,91.47
2019-05-26T21:27:57.726Z,91.27
2019-05-26T21:30:34.880Z,91.64
2019-05-26T21:33:09.187Z,92.22
2019-05-26T21:35:44.726Z,93.03
2019-05-26T21:38:19.011Z,91.97
2019-05-26T21:40:57.834Z,92.35
2019-05-26T21:43:29.845Z,92.41
2019-05-26T21:46:07.562Z,92.07
2019-05-26T21:48:45.870Z,91.03
2019-05-26T21:51:19.580Z,90.95
2019-05-26T21:53:57.910Z,89.58
2019-05-26T21:56:33.976Z,89.66
2019-05-26T21:59:12.693Z,89.66
2019-05-26T22:01:48.812Z,89.31
2019-05-26T22:04:26.519Z,88.90
2019-05-26T22:07:02.433Z,88.77
2019-05-26T22:09:38.649Z,89.01
2019-05-26T22:12:14.163Z,88.06
2019-05-26T22:14:47.484Z,88.64
2019-05-26T22:17:21.860Z,88.38
2019-05-26T22:20:09.901Z,87.69
2019-05-26T22:22:52.894Z,87.55
2019-05-26T22:25:50.607Z,87.21
2019-05-26T22:28:23.830Z,87.46
2019-05-26T22:30:56.710Z,87.83
2019-05-26T22:33:29.900Z,87.39
2019-05-26T22:36:02.441Z,87.98
2019-05-26T22:38:38.806Z,87.95
2019-05-26T22:41:18.463Z,87.76
2019-05-26T22:43:51.514Z,87.50
2019-05-26T22:46:27.572Z,87.69
2019-05-26T22:49:03.549Z,87.59
2019-05-26T22:51:37.520Z,87.75
2019-05-26T22:54:11.710Z,87.50
2019-05-26T22:56:52.111Z,88.00
2019-05-26T22:59:32.047Z,88.36
2019-05-26T23:02:07.329Z,88.74
2019-05-26T23:04:45.106Z,89.68
2019-05-26T23:07:20.950Z,90.33
2019-05-26T23:09:57.703Z,90.88
2019-05-26T23:12:31.522Z,91.02
2019-05-26T23:15:05.635Z,91.55
2019-05-26T23:17:40.974Z,92.35
2019-05-26T23:20:13.952Z,93.32
2019-05-26T23:22:51.472Z,94.00
2019-05-26T23:25:26.980Z,95.24
2019-05-26T23:27:58.951Z,95.78
2019-05-26T23:30:31.522Z,96.36
2019-05-26T23:33:07.026Z,96.01
2019-05-26T23:35:50.400Z,95.99
2019-05-26T23:38:25.193Z,97.40
2019-05-26T23:41:00.341Z,97.43
2019-05-26T23:43:37.141Z,96.92
2019-05-26T23:46:15.019Z,97.43
2019-05-26T23:48:48.227Z,96.82
2019-05-26T23:51:22.361Z,96.80
2019-05-26T23:53:55.936Z,96.54
2019-05-26T23:56:32.214Z,97.24
2019-05-26T23:59:06.534Z,98.04
